createdAt,value
2022-11-13T00:00:39.203Z,1027.55
2022-11-13T00:01:39.192Z,1027.54
2022-11-13T00:02:39.247Z,1027.52
2022-11-13T00:03:39.174Z,1027.53
2022-11-13T00:04:39.162Z,1027.54
2022-11-13T00:05:39.151Z,1027.56
2022-11-13T00:06:39.204Z,1027.54
2022-11-13T00:07:39.131Z,1027.53
2022-11-13T00:08:39.122Z,1027.53
2022-11-13T00:09:39.111Z,1027.51
2022-11-13T00:10:39.101Z,1027.48
2022-11-13T00:11:39.092Z,1027.43
2022-11-13T00:12:39.081Z,1027.45
2022-11-13T00:13:39.076Z,1027.46
2022-11-13T00:14:39.139Z,1027.48
2022-11-13T00:15:39.051Z,1027.51
2022-11-13T00:16:39.045Z,1027.48
2022-11-13T00:17:39.030Z,1027.46
2022-11-13T00:18:39.023Z,1027.46
2022-11-13T00:19:39.011Z,1027.46
2022-11-13T00:20:39.000Z,1027.47
2022-11-13T00:21:38.990Z,1027.40
2022-11-13T00:22:38.979Z,1027.42
2022-11-13T00:23:38.969Z,1027.39
2022-11-13T00:24:38.959Z,1027.37
2022-11-13T00:25:38.951Z,1027.37
2022-11-13T00:26:38.940Z,1027.42
2022-11-13T00:27:38.933Z,1027.33
2022-11-13T00:28:38.919Z,1027.39
2022-11-13T00:29:38.922Z,1027.39
2022-11-13T00:30:38.985Z,1027.39
2022-11-13T00:31:38.890Z,1027.35
2022-11-13T00:32:38.876Z,1027.38
2022-11-13T00:34:05.427Z,1027.35
2022-11-13T00:34:47.746Z,1027.34
2022-11-13T00:35:38.852Z,1027.35
2022-11-13T00:36:38.838Z,1027.35
2022-11-13T00:37:38.831Z,1027.31
2022-11-13T00:38:38.819Z,1027.32
2022-11-13T00:39:38.808Z,1027.36
2022-11-13T00:40:38.800Z,1027.34
2022-11-13T00:41:38.799Z,1027.37
2022-11-13T00:42:38.779Z,1027.34
2022-11-13T00:43:38.768Z,1027.31
2022-11-13T00:44:38.759Z,1027.31
2022-11-13T00:45:38.750Z,1027.33
2022-11-13T00:46:38.824Z,1027.31
2022-11-13T00:47:38.731Z,1027.33
2022-11-13T00:48:38.722Z,1027.36
2022-11-13T00:49:38.711Z,1027.37
2022-11-13T00:50:38.700Z,1027.34
2022-11-13T00:51:38.694Z,1027.32
2022-11-13T00:52:38.684Z,1027.28
2022-11-13T00:53:38.673Z,1027.24
2022-11-13T00:54:38.661Z,1027.25
2022-11-13T00:55:38.652Z,1027.23
2022-11-13T00:56:38.641Z,1027.21
2022-11-13T00:57:38.631Z,1027.22
2022-11-13T00:58:38.617Z,1027.20
2022-11-13T00:59:38.613Z,1027.22
2022-11-13T01:00:38.603Z,1027.22
2022-11-13T01:01:38.628Z,1027.22
2022-11-13T01:02:38.661Z,1027.21
2022-11-13T01:03:38.573Z,1027.13
2022-11-13T01:04:38.562Z,1027.13
2022-11-13T01:05:38.554Z,1027.10
2022-11-13T01:06:38.646Z,1027.11
2022-11-13T01:07:38.536Z,1027.08
2022-11-13T01:08:38.521Z,1027.11
2022-11-13T01:09:38.516Z,1027.06
2022-11-13T01:10:38.503Z,1027.05
2022-11-13T01:11:38.493Z,1027.03
2022-11-13T01:12:38.484Z,1027.00
2022-11-13T01:13:38.475Z,1027.03
2022-11-13T01:14:38.465Z,1027.00
2022-11-13T01:15:38.456Z,1027.02
2022-11-13T01:16:38.446Z,1027.04
2022-11-13T01:17:38.441Z,1027.04
2022-11-13T01:18:38.521Z,1027.04
2022-11-13T01:19:38.418Z,1027.01
2022-11-13T01:20:38.406Z,1027.00
2022-11-13T01:21:38.396Z,1026.97
2022-11-13T01:22:38.389Z,1026.95
2022-11-13T01:23:38.377Z,1026.96
2022-11-13T01:24:38.368Z,1026.93
2022-11-13T01:25:38.359Z,1027.01
2022-11-13T01:26:38.352Z,1026.99
2022-11-13T01:27:38.340Z,1027.03
2022-11-13T01:28:38.335Z,1027.00
2022-11-13T01:29:38.320Z,1026.96
2022-11-13T01:30:38.311Z,1026.91
2022-11-13T01:31:38.305Z,1026.86
2022-11-13T01:32:38.291Z,1026.85
2022-11-13T01:33:38.287Z,1026.86
2022-11-13T01:34:38.350Z,1026.88
2022-11-13T01:35:38.264Z,1026.88
2022-11-13T01:36:38.253Z,1026.90
2022-11-13T01:37:38.249Z,1026.93
2022-11-13T01:38:38.540Z,1026.88
2022-11-13T01:39:38.229Z,1026.89
2022-11-13T01:40:38.216Z,1026.88
2022-11-13T01:41:38.206Z,1026.89
2022-11-13T01:42:38.197Z,1026.91
2022-11-13T01:43:38.186Z,1026.91
2022-11-13T01:44:38.178Z,1026.91
2022-11-13T01:45:38.166Z,1026.92
2022-11-13T01:46:38.158Z,1026.92
2022-11-13T01:47:38.172Z,1026.88
2022-11-13T01:48:38.140Z,1026.83
2022-11-13T01:49:38.131Z,1026.79
2022-11-13T01:50:38.203Z,1026.76
2022-11-13T01:51:38.111Z,1026.76
2022-11-13T01:52:38.102Z,1026.76
2022-11-13T01:53:38.095Z,1026.78
2022-11-13T01:54:38.082Z,1026.78
2022-11-13T01:55:38.073Z,1026.79
2022-11-13T01:56:38.069Z,1026.76
2022-11-13T01:57:38.054Z,1026.75
2022-11-13T01:58:38.044Z,1026.72
2022-11-13T01:59:38.037Z,1026.75
2022-11-13T02:00:38.025Z,1026.74
2022-11-13T02:01:38.079Z,1026.75
2022-11-13T02:02:38.007Z,1026.72
2022-11-13T02:03:37.998Z,1026.78
2022-11-13T02:04:37.991Z,1026.74
2022-11-13T02:05:37.979Z,1026.70
2022-11-13T02:06:38.074Z,1026.64
2022-11-13T02:07:37.962Z,1026.67
2022-11-13T02:08:37.953Z,1026.66
2022-11-13T02:09:37.943Z,1026.63
2022-11-13T02:10:37.933Z,1026.64
2022-11-13T02:11:37.924Z,1026.68
2022-11-13T02:12:37.923Z,1026.64
2022-11-13T02:13:37.911Z,1026.61
2022-11-13T02:14:37.896Z,1026.64
2022-11-13T02:15:37.882Z,1026.60
2022-11-13T02:16:37.876Z,1026.65
2022-11-13T02:17:37.868Z,1026.64
2022-11-13T02:18:37.861Z,1026.64
2022-11-13T02:19:37.850Z,1026.63
2022-11-13T02:20:37.839Z,1026.60
2022-11-13T02:21:37.832Z,1026.59
2022-11-13T02:22:37.905Z,1026.56
2022-11-13T02:23:37.813Z,1026.55
2022-11-13T02:24:38.889Z,1026.58
2022-11-13T02:25:37.795Z,1026.55
2022-11-13T02:26:37.787Z,1026.62
2022-11-13T02:27:37.776Z,1026.59
2022-11-13T02:28:37.767Z,1026.61
2022-11-13T02:29:37.755Z,1026.60
2022-11-13T02:30:37.750Z,1026.58
2022-11-13T02:31:37.738Z,1026.57
2022-11-13T02:32:37.732Z,1026.56
2022-11-13T02:33:37.723Z,1026.61
2022-11-13T02:34:37.710Z,1026.56
2022-11-13T02:35:37.705Z,1026.57
2022-11-13T02:36:37.696Z,1026.55
2022-11-13T02:37:37.685Z,1026.51
2022-11-13T02:38:37.758Z,1026.48
2022-11-13T02:39:37.668Z,1026.47
2022-11-13T02:40:37.659Z,1026.45
2022-11-13T02:41:37.649Z,1026.46
2022-11-13T02:42:37.640Z,1026.49
2022-11-13T02:43:37.631Z,1026.43
2022-11-13T02:44:37.622Z,1026.43
2022-11-13T02:45:37.612Z,1026.46
2022-11-13T02:46:37.606Z,1026.39
2022-11-13T02:47:37.656Z,1026.39
2022-11-13T02:48:37.587Z,1026.39
2022-11-13T02:49:37.577Z,1026.34
2022-11-13T02:50:37.567Z,1026.35
2022-11-13T02:51:37.560Z,1026.32
2022-11-13T02:52:37.631Z,1026.33
2022-11-13T02:53:37.542Z,1026.33
2022-11-13T02:54:37.613Z,1026.29
2022-11-13T02:55:37.524Z,1026.27
2022-11-13T02:56:37.518Z,1026.23
2022-11-13T02:57:37.505Z,1026.21
2022-11-13T02:58:37.496Z,1026.21
2022-11-13T02:59:37.488Z,1026.21
2022-11-13T03:00:37.479Z,1026.19
2022-11-13T03:01:37.553Z,1026.18
2022-11-13T03:02:37.463Z,1026.19
2022-11-13T03:04:06.889Z,1026.12
2022-11-13T03:05:05.218Z,1026.09
2022-11-13T03:05:37.435Z,1026.09
2022-11-13T03:06:37.481Z,1026.05
2022-11-13T03:07:37.416Z,1026.04
2022-11-13T03:08:37.921Z,1026.02
2022-11-13T03:09:37.395Z,1026.09
2022-11-13T03:10:37.473Z,1026.04
2022-11-13T03:11:37.381Z,1026.05
2022-11-13T03:12:37.374Z,1026.05
2022-11-13T03:13:37.363Z,1026.03
2022-11-13T03:14:37.354Z,1026.06
2022-11-13T03:15:37.346Z,1026.10
2022-11-13T03:16:37.337Z,1026.07
2022-11-13T03:17:37.328Z,1026.07
2022-11-13T03:18:37.322Z,1026.05
2022-11-13T03:19:37.313Z,1026.07
2022-11-13T03:20:37.301Z,1026.03
2022-11-13T03:21:37.290Z,1026.03
2022-11-13T03:22:37.283Z,1026.04
2022-11-13T03:23:37.276Z,1026.09
2022-11-13T03:24:37.264Z,1026.13
2022-11-13T03:25:37.258Z,1026.13
2022-11-13T03:26:37.332Z,1026.14
2022-11-13T03:27:37.240Z,1026.12
2022-11-13T03:28:37.231Z,1026.13
2022-11-13T03:29:37.224Z,1026.11
2022-11-13T03:30:37.215Z,1026.15
2022-11-13T03:31:37.207Z,1026.17
2022-11-13T03:32:37.189Z,1026.16
2022-11-13T03:33:37.188Z,1026.16
2022-11-13T03:34:37.175Z,1026.15
2022-11-13T03:35:44.243Z,1026.19
2022-11-13T03:36:37.160Z,1026.17
2022-11-13T03:37:37.150Z,1026.18
2022-11-13T03:38:37.145Z,1026.21
2022-11-13T03:39:37.135Z,1026.18
2022-11-13T03:40:37.123Z,1026.20
2022-11-13T03:41:37.116Z,1026.23
2022-11-13T03:42:37.191Z,1026.22
2022-11-13T03:43:37.097Z,1026.23
2022-11-13T03:44:37.089Z,1026.28
2022-11-13T03:45:37.084Z,1026.27
2022-11-13T03:46:37.072Z,1026.27
2022-11-13T03:47:37.063Z,1026.28
2022-11-13T03:48:37.056Z,1026.27
2022-11-13T03:49:37.047Z,1026.27
2022-11-13T03:50:40.339Z,1026.31
2022-11-13T03:51:37.029Z,1026.34
2022-11-13T03:52:37.017Z,1026.34
2022-11-13T03:53:37.009Z,1026.33
2022-11-13T03:54:37.003Z,1026.33
2022-11-13T03:55:36.992Z,1026.28
2022-11-13T03:56:36.982Z,1026.30
2022-11-13T03:57:36.975Z,1026.24
2022-11-13T03:58:40.114Z,1026.28
2022-11-13T03:59:36.958Z,1026.23
2022-11-13T04:00:36.967Z,1026.24
2022-11-13T04:01:36.977Z,1026.19
2022-11-13T04:02:36.930Z,1026.16
2022-11-13T04:03:36.932Z,1026.14
2022-11-13T04:04:36.913Z,1026.13
2022-11-13T04:05:36.903Z,1026.08
2022-11-13T04:06:36.933Z,1026.08
2022-11-13T04:07:36.886Z,1026.11
2022-11-13T04:08:36.876Z,1026.08
2022-11-13T04:09:36.872Z,1026.06
2022-11-13T04:10:36.860Z,1026.08
2022-11-13T04:11:36.850Z,1026.04
2022-11-13T04:12:36.842Z,1026.06
2022-11-13T04:13:36.834Z,1026.03
2022-11-13T04:14:36.903Z,1025.99
2022-11-13T04:15:36.818Z,1026.00
2022-11-13T04:16:36.806Z,1025.96
2022-11-13T04:17:36.798Z,1025.96
2022-11-13T04:18:36.791Z,1025.92
2022-11-13T04:19:36.781Z,1025.87
2022-11-13T04:20:36.769Z,1025.85
2022-11-13T04:21:36.764Z,1025.88
2022-11-13T04:22:36.754Z,1025.81
2022-11-13T04:23:36.745Z,1025.85
2022-11-13T04:24:36.733Z,1025.85
2022-11-13T04:25:36.726Z,1025.83
2022-11-13T04:26:36.720Z,1025.87
2022-11-13T04:27:36.715Z,1025.83
2022-11-13T04:28:36.701Z,1025.86
2022-11-13T04:29:36.691Z,1025.86
2022-11-13T04:30:36.792Z,1025.83
2022-11-13T04:31:36.674Z,1025.90
2022-11-13T04:32:36.664Z,1025.91
2022-11-13T04:33:36.657Z,1025.92
2022-11-13T04:34:36.649Z,1025.89
2022-11-13T04:35:36.641Z,1025.87
2022-11-13T04:36:36.630Z,1025.90
2022-11-13T04:37:36.623Z,1025.88
2022-11-13T04:38:36.614Z,1025.89
2022-11-13T04:39:36.605Z,1025.92
2022-11-13T04:40:36.643Z,1025.91
2022-11-13T04:41:36.583Z,1025.93
2022-11-13T04:42:36.632Z,1025.87
2022-11-13T04:43:36.570Z,1025.90
2022-11-13T04:44:36.560Z,1025.88
2022-11-13T04:45:36.554Z,1025.90
2022-11-13T04:46:36.624Z,1025.89
2022-11-13T04:47:36.534Z,1025.88
2022-11-13T04:48:36.528Z,1025.85
2022-11-13T04:49:36.520Z,1025.87
2022-11-13T04:50:36.552Z,1025.89
2022-11-13T04:51:36.500Z,1025.88
2022-11-13T04:52:36.489Z,1025.87
2022-11-13T04:53:36.484Z,1025.86
2022-11-13T04:54:36.477Z,1025.90
2022-11-13T04:55:36.463Z,1025.86
2022-11-13T04:56:36.455Z,1025.88
2022-11-13T04:57:36.446Z,1025.87
2022-11-13T04:58:36.437Z,1025.90
2022-11-13T04:59:36.429Z,1025.87
2022-11-13T05:00:36.437Z,1025.86
2022-11-13T05:01:36.486Z,1025.83
2022-11-13T05:02:36.486Z,1025.88
2022-11-13T05:03:36.395Z,1025.89
2022-11-13T05:04:36.385Z,1025.85
2022-11-13T05:05:36.376Z,1025.88
2022-11-13T05:06:36.483Z,1025.86
2022-11-13T05:07:36.358Z,1025.83
2022-11-13T05:08:36.351Z,1025.85
2022-11-13T05:09:36.347Z,1025.86
2022-11-13T05:10:36.331Z,1025.89
2022-11-13T05:11:36.324Z,1025.91
2022-11-13T05:12:36.314Z,1025.90
2022-11-13T05:13:36.307Z,1025.88
2022-11-13T05:14:36.294Z,1025.89
2022-11-13T05:15:36.387Z,1025.88
2022-11-13T05:16:36.280Z,1025.88
2022-11-13T05:17:36.271Z,1025.87
2022-11-13T05:18:36.344Z,1025.86
2022-11-13T05:19:36.252Z,1025.84
2022-11-13T05:20:36.243Z,1025.82
2022-11-13T05:21:36.235Z,1025.81
2022-11-13T05:22:36.228Z,1025.80
2022-11-13T05:23:36.217Z,1025.80
2022-11-13T05:24:36.209Z,1025.81
2022-11-13T05:25:36.199Z,1025.81
2022-11-13T05:26:36.192Z,1025.85
2022-11-13T05:27:36.184Z,1025.86
2022-11-13T05:28:36.172Z,1025.78
2022-11-13T05:29:36.165Z,1025.78
2022-11-13T05:30:36.155Z,1025.77
2022-11-13T05:31:36.148Z,1025.74
2022-11-13T05:32:36.136Z,1025.76
2022-11-13T05:33:36.129Z,1025.76
2022-11-13T05:34:36.199Z,1025.78
2022-11-13T05:35:36.112Z,1025.76
2022-11-13T05:36:36.102Z,1025.79
2022-11-13T05:37:36.101Z,1025.80
2022-11-13T05:38:36.083Z,1025.82
2022-11-13T05:39:36.076Z,1025.85
2022-11-13T05:40:36.063Z,1025.81
2022-11-13T05:41:36.061Z,1025.82
2022-11-13T05:42:36.051Z,1025.81
2022-11-13T05:43:36.043Z,1025.78
2022-11-13T05:44:36.031Z,1025.80
2022-11-13T05:45:36.021Z,1025.79
2022-11-13T05:46:36.021Z,1025.76
2022-11-13T05:47:36.007Z,1025.77
2022-11-13T05:48:35.996Z,1025.76
2022-11-13T05:49:35.986Z,1025.73
2022-11-13T05:50:36.054Z,1025.75
2022-11-13T05:51:35.969Z,1025.76
2022-11-13T05:52:35.959Z,1025.76
2022-11-13T05:53:35.951Z,1025.77
2022-11-13T05:54:35.946Z,1025.82
2022-11-13T05:55:35.935Z,1025.80
2022-11-13T05:56:35.923Z,1025.73
2022-11-13T05:57:35.916Z,1025.68
2022-11-13T05:58:35.906Z,1025.73
2022-11-13T05:59:35.900Z,1025.68
2022-11-13T06:00:35.890Z,1025.69
2022-11-13T06:01:35.981Z,1025.67
2022-11-13T06:02:35.871Z,1025.68
2022-11-13T06:03:35.862Z,1025.63
2022-11-13T06:04:35.852Z,1025.65
2022-11-13T06:05:35.845Z,1025.66
2022-11-13T06:06:35.913Z,1025.65
2022-11-13T06:07:35.826Z,1025.66
2022-11-13T06:08:35.816Z,1025.68
2022-11-13T06:09:35.808Z,1025.65
2022-11-13T06:10:35.803Z,1025.64
2022-11-13T06:11:35.792Z,1025.67
2022-11-13T06:12:35.782Z,1025.60
2022-11-13T06:13:35.773Z,1025.58
2022-11-13T06:14:35.761Z,1025.60
2022-11-13T06:15:35.755Z,1025.59
2022-11-13T06:16:35.745Z,1025.60
2022-11-13T06:17:35.736Z,1025.60
2022-11-13T06:18:35.731Z,1025.59
2022-11-13T06:19:35.721Z,1025.63
2022-11-13T06:20:35.710Z,1025.57
2022-11-13T06:21:35.706Z,1025.54
2022-11-13T06:22:35.776Z,1025.54
2022-11-13T06:23:35.684Z,1025.52
2022-11-13T06:24:35.676Z,1025.51
2022-11-13T06:25:35.666Z,1025.51
2022-11-13T06:26:35.657Z,1025.48
2022-11-13T06:27:35.649Z,1025.44
2022-11-13T06:28:35.643Z,1025.43
2022-11-13T06:29:35.630Z,1025.46
2022-11-13T06:30:35.627Z,1025.47
2022-11-13T06:31:35.612Z,1025.44
2022-11-13T06:32:35.609Z,1025.43
2022-11-13T06:33:35.594Z,1025.43
2022-11-13T06:34:35.588Z,1025.39
2022-11-13T06:35:35.578Z,1025.39
2022-11-13T06:36:35.567Z,1025.38
2022-11-13T06:37:35.560Z,1025.38
2022-11-13T06:38:35.594Z,1025.39
2022-11-13T06:39:35.543Z,1025.33
2022-11-13T06:40:35.533Z,1025.37
2022-11-13T06:41:35.525Z,1025.38
2022-11-13T06:42:35.515Z,1025.38
2022-11-13T06:43:35.508Z,1025.37
2022-11-13T06:44:35.498Z,1025.39
2022-11-13T06:45:35.492Z,1025.41
2022-11-13T06:46:35.482Z,1025.38
2022-11-13T06:47:35.470Z,1025.38
2022-11-13T06:48:35.462Z,1025.33
2022-11-13T06:49:35.454Z,1025.35
2022-11-13T06:50:35.443Z,1025.33
2022-11-13T06:51:35.439Z,1025.33
2022-11-13T06:52:35.426Z,1025.30
2022-11-13T06:53:35.417Z,1025.31
2022-11-13T06:54:35.493Z,1025.28
2022-11-13T06:55:35.403Z,1025.30
2022-11-13T06:56:35.392Z,1025.28
2022-11-13T06:57:35.382Z,1025.31
2022-11-13T06:58:35.374Z,1025.30
2022-11-13T06:59:35.365Z,1025.28
2022-11-13T07:00:37.556Z,1025.31
2022-11-13T07:01:35.384Z,1025.33
2022-11-13T07:02:35.351Z,1025.27
2022-11-13T07:03:35.334Z,1025.29
2022-11-13T07:04:35.321Z,1025.28
2022-11-13T07:05:35.311Z,1025.26
2022-11-13T07:06:40.165Z,1025.28
2022-11-13T07:07:35.295Z,1025.26
2022-11-13T07:08:35.283Z,1025.24
2022-11-13T07:09:35.276Z,1025.31
2022-11-13T07:10:35.355Z,1025.26
2022-11-13T07:11:35.261Z,1025.23
2022-11-13T07:12:35.254Z,1025.24
2022-11-13T07:13:35.242Z,1025.24
2022-11-13T07:14:35.261Z,1025.23
2022-11-13T07:15:35.222Z,1025.22
2022-11-13T07:17:04.342Z,1025.26
2022-11-13T07:17:35.207Z,1025.20
2022-11-13T07:18:35.195Z,1025.22
2022-11-13T07:19:35.186Z,1025.22
2022-11-13T07:20:35.181Z,1025.20
2022-11-13T07:21:35.168Z,1025.20
2022-11-13T07:22:35.159Z,1025.19
2022-11-13T07:23:35.152Z,1025.23
2022-11-13T07:24:35.138Z,1025.22
2022-11-13T07:25:35.131Z,1025.19
2022-11-13T07:26:35.202Z,1025.16
2022-11-13T07:27:35.113Z,1025.19
2022-11-13T07:28:35.104Z,1025.20
2022-11-13T07:29:35.096Z,1025.18
2022-11-13T07:30:35.088Z,1025.15
2022-11-13T07:31:35.076Z,1025.17
2022-11-13T07:32:35.067Z,1025.19
2022-11-13T07:33:35.064Z,1025.19
2022-11-13T07:34:35.049Z,1025.20
2022-11-13T07:35:35.041Z,1025.20
2022-11-13T07:36:35.034Z,1025.19
2022-11-13T07:37:35.022Z,1025.24
2022-11-13T07:38:35.015Z,1025.20
2022-11-13T07:39:35.006Z,1025.16
2022-11-13T07:40:34.995Z,1025.19
2022-11-13T07:41:34.986Z,1025.16
2022-11-13T07:42:35.063Z,1025.13
2022-11-13T07:43:34.968Z,1025.12
2022-11-13T07:44:53.376Z,1025.10
2022-11-13T07:45:34.954Z,1025.14
2022-11-13T07:46:34.940Z,1025.16
2022-11-13T07:47:34.933Z,1025.15
2022-11-13T07:48:34.924Z,1025.14
2022-11-13T07:49:34.927Z,1025.15
2022-11-13T07:50:34.906Z,1025.16
2022-11-13T07:51:34.901Z,1025.14
2022-11-13T07:52:34.888Z,1025.11
2022-11-13T07:53:34.880Z,1025.13
2022-11-13T07:54:34.869Z,1025.14
2022-11-13T07:55:34.860Z,1025.07
2022-11-13T07:56:34.852Z,1025.10
2022-11-13T07:57:34.845Z,1025.07
2022-11-13T07:58:34.916Z,1025.08
2022-11-13T07:59:34.826Z,1025.11
2022-11-13T08:00:34.815Z,1025.07
2022-11-13T08:01:34.859Z,1025.10
2022-11-13T08:02:34.800Z,1025.11
2022-11-13T08:03:34.807Z,1025.15
2022-11-13T08:04:34.782Z,1025.10
2022-11-13T08:05:34.773Z,1025.11
2022-11-13T08:06:34.762Z,1025.08
2022-11-13T08:07:34.755Z,1025.12
2022-11-13T08:08:34.747Z,1025.12
2022-11-13T08:09:34.740Z,1025.15
2022-11-13T08:10:34.726Z,1025.14
2022-11-13T08:11:34.719Z,1025.17
2022-11-13T08:12:34.707Z,1025.17
2022-11-13T08:13:34.698Z,1025.15
2022-11-13T08:14:34.774Z,1025.14
2022-11-13T08:15:34.683Z,1025.12
2022-11-13T08:16:34.671Z,1025.15
2022-11-13T08:17:34.664Z,1025.15
2022-11-13T08:18:34.652Z,1025.13
2022-11-13T08:19:34.657Z,1025.14
2022-11-13T08:20:34.632Z,1025.13
2022-11-13T08:21:34.628Z,1025.13
2022-11-13T08:22:34.618Z,1025.04
2022-11-13T08:23:34.611Z,1025.09
2022-11-13T08:24:34.601Z,1025.09
2022-11-13T08:25:34.591Z,1025.07
2022-11-13T08:26:34.582Z,1025.08
2022-11-13T08:27:34.575Z,1025.02
2022-11-13T08:28:34.563Z,1024.98
2022-11-13T08:29:34.555Z,1024.99
2022-11-13T08:30:34.626Z,1025.00
2022-11-13T08:31:34.537Z,1025.02
2022-11-13T08:32:34.555Z,1025.02
2022-11-13T08:33:34.518Z,1025.05
2022-11-13T08:34:34.510Z,1025.07
2022-11-13T08:35:34.505Z,1025.03
2022-11-13T08:36:34.489Z,1025.01
2022-11-13T08:37:34.483Z,1025.01
2022-11-13T08:38:34.517Z,1025.04
2022-11-13T08:39:34.467Z,1025.04
2022-11-13T08:40:34.456Z,1025.03
2022-11-13T08:41:34.449Z,1025.04
2022-11-13T08:42:34.441Z,1025.04
2022-11-13T08:43:34.432Z,1025.04
2022-11-13T08:44:34.421Z,1025.04
2022-11-13T08:45:34.411Z,1025.06
2022-11-13T08:46:34.485Z,1024.99
2022-11-13T08:47:34.395Z,1025.02
2022-11-13T08:48:34.385Z,1024.99
2022-11-13T08:49:34.377Z,1024.98
2022-11-13T08:50:34.369Z,1024.97
2022-11-13T08:51:34.361Z,1025.01
2022-11-13T08:52:34.353Z,1025.02
2022-11-13T08:53:34.341Z,1025.06
2022-11-13T08:54:34.333Z,1024.99
2022-11-13T08:55:34.326Z,1025.04
2022-11-13T08:56:34.314Z,1025.00
2022-11-13T08:57:34.307Z,1025.02
2022-11-13T08:58:34.293Z,1025.04
2022-11-13T08:59:34.291Z,1024.99
2022-11-13T09:00:34.278Z,1025.03
2022-11-13T09:01:34.270Z,1025.03
2022-11-13T09:02:34.337Z,1025.06
2022-11-13T09:03:34.283Z,1025.00
2022-11-13T09:04:34.248Z,1024.99
2022-11-13T09:05:34.233Z,1025.00
2022-11-13T09:06:34.223Z,1025.01
2022-11-13T09:07:34.320Z,1024.98
2022-11-13T09:08:34.207Z,1025.02
2022-11-13T09:09:34.196Z,1025.00
2022-11-13T09:10:34.190Z,1025.00
2022-11-13T09:11:34.177Z,1025.00
2022-11-13T09:12:34.168Z,1024.99
2022-11-13T09:13:34.163Z,1025.00
2022-11-13T09:14:34.152Z,1025.01
2022-11-13T09:15:34.143Z,1025.01
2022-11-13T09:16:34.135Z,1025.01
2022-11-13T09:17:34.125Z,1025.00
2022-11-13T09:18:34.202Z,1025.01
2022-11-13T09:19:34.107Z,1025.01
2022-11-13T09:20:34.098Z,1024.95
2022-11-13T09:21:34.089Z,1024.95
2022-11-13T09:22:34.081Z,1024.94
2022-11-13T09:23:34.071Z,1024.92
2022-11-13T09:24:34.063Z,1024.89
2022-11-13T09:25:37.309Z,1024.94
2022-11-13T09:26:34.044Z,1024.94
2022-11-13T09:27:34.039Z,1024.90
2022-11-13T09:28:34.026Z,1024.93
2022-11-13T09:29:34.017Z,1024.91
2022-11-13T09:30:34.011Z,1024.95
2022-11-13T09:31:34.002Z,1024.88
2022-11-13T09:32:33.988Z,1024.90
2022-11-13T09:33:33.981Z,1024.91
2022-11-13T09:34:34.053Z,1024.87
2022-11-13T09:35:33.969Z,1024.93
2022-11-13T09:36:33.959Z,1024.91
2022-11-13T09:37:33.947Z,1024.89
2022-11-13T09:38:33.939Z,1024.91
2022-11-13T09:39:33.929Z,1024.95
2022-11-13T09:40:33.920Z,1024.94
2022-11-13T09:41:33.911Z,1024.90
2022-11-13T09:42:33.900Z,1024.93
2022-11-13T09:43:33.897Z,1024.93
2022-11-13T09:44:33.887Z,1024.84
2022-11-13T09:45:33.876Z,1024.93
2022-11-13T09:46:33.869Z,1024.90
2022-11-13T09:47:33.859Z,1024.91
2022-11-13T09:48:33.853Z,1024.86
2022-11-13T09:49:33.843Z,1024.86
2022-11-13T09:50:33.915Z,1024.88
2022-11-13T09:51:33.825Z,1024.89
2022-11-13T09:52:33.816Z,1024.89
2022-11-13T09:53:33.808Z,1024.87
2022-11-13T09:54:33.799Z,1024.85
2022-11-13T09:55:33.786Z,1024.87
2022-11-13T09:56:33.780Z,1024.84
2022-11-13T09:57:33.771Z,1024.87
2022-11-13T09:58:33.765Z,1024.81
2022-11-13T09:59:33.756Z,1024.83
2022-11-13T10:00:33.743Z,1024.90
2022-11-13T10:01:33.767Z,1024.81
2022-11-13T10:02:33.726Z,1024.81
2022-11-13T10:03:54.610Z,1024.83
2022-11-13T10:04:33.708Z,1024.82
2022-11-13T10:05:33.699Z,1024.82
2022-11-13T10:06:33.773Z,1024.76
2022-11-13T10:07:33.682Z,1024.81
2022-11-13T10:08:33.674Z,1024.75
2022-11-13T10:09:33.664Z,1024.77
2022-11-13T10:10:33.656Z,1024.80
2022-11-13T10:11:33.649Z,1024.71
2022-11-13T10:12:33.642Z,1024.73
2022-11-13T10:13:33.630Z,1024.75
2022-11-13T10:14:33.620Z,1024.70
2022-11-13T10:15:33.612Z,1024.64
2022-11-13T10:16:33.604Z,1024.73
2022-11-13T10:17:33.597Z,1024.70
2022-11-13T10:18:33.584Z,1024.63
2022-11-13T10:19:33.616Z,1024.62
2022-11-13T10:20:33.568Z,1024.63
2022-11-13T10:21:33.557Z,1024.61
2022-11-13T10:22:34.537Z,1024.59
2022-11-13T10:23:33.546Z,1024.55
2022-11-13T10:24:33.530Z,1024.55
2022-11-13T10:25:33.524Z,1024.58
2022-11-13T10:26:33.528Z,1024.60
2022-11-13T10:27:33.525Z,1024.60
2022-11-13T10:28:51.210Z,1024.58
2022-11-13T10:29:33.488Z,1024.58
2022-11-13T10:30:33.479Z,1024.57
2022-11-13T10:31:33.472Z,1024.55
2022-11-13T10:32:33.462Z,1024.59
2022-11-13T10:33:33.454Z,1024.52
2022-11-13T10:34:33.448Z,1024.54
2022-11-13T10:35:33.438Z,1024.58
2022-11-13T10:36:33.429Z,1024.52
2022-11-13T10:37:33.427Z,1024.53
2022-11-13T10:38:33.494Z,1024.53
2022-11-13T10:39:33.403Z,1024.49
2022-11-13T10:40:33.394Z,1024.46
2022-11-13T10:41:33.394Z,1024.48
2022-11-13T10:42:33.372Z,1024.47
2022-11-13T10:43:33.367Z,1024.43
2022-11-13T10:44:33.360Z,1024.40
2022-11-13T10:45:33.349Z,1024.39
2022-11-13T10:46:33.382Z,1024.37
2022-11-13T10:48:33.317Z,1024.37
2022-11-13T10:49:33.324Z,1024.40
2022-11-13T10:50:33.307Z,1024.34
2022-11-13T10:51:33.298Z,1024.36
2022-11-13T10:52:33.288Z,1024.42
2022-11-13T10:53:33.278Z,1024.30
2022-11-13T10:54:33.350Z,1024.28
2022-11-13T10:55:33.263Z,1024.35
2022-11-13T10:56:33.251Z,1024.29
2022-11-13T10:57:33.246Z,1024.30
2022-11-13T10:58:33.457Z,1024.26
2022-11-13T10:59:33.230Z,1024.33
2022-11-13T11:00:33.217Z,1024.28
2022-11-13T11:01:33.248Z,1024.25
2022-11-13T11:02:33.200Z,1024.23
2022-11-13T11:03:33.196Z,1024.22
2022-11-13T11:04:33.183Z,1024.21
2022-11-13T11:05:33.172Z,1024.23
2022-11-13T11:07:04.397Z,1024.16
2022-11-13T11:07:33.246Z,1024.21
2022-11-13T11:08:33.155Z,1024.20
2022-11-13T11:09:33.148Z,1024.12
2022-11-13T11:10:33.213Z,1024.17
2022-11-13T11:11:33.131Z,1024.16
2022-11-13T11:12:33.206Z,1024.09
2022-11-13T11:13:33.105Z,1024.05
2022-11-13T11:14:33.094Z,1024.09
2022-11-13T11:15:33.094Z,1024.03
2022-11-13T11:16:33.082Z,1024.07
2022-11-13T11:17:33.079Z,1024.01
2022-11-13T11:18:33.059Z,1024.04
2022-11-13T11:19:33.053Z,1024.01
2022-11-13T11:20:33.042Z,1024.02
2022-11-13T11:21:33.034Z,1023.98
2022-11-13T11:22:33.027Z,1023.98
2022-11-13T11:23:33.021Z,1023.94
2022-11-13T11:24:33.009Z,1023.96
2022-11-13T11:25:33.000Z,1023.95
2022-11-13T11:26:33.074Z,1023.96
2022-11-13T11:27:32.983Z,1023.99
2022-11-13T11:28:32.975Z,1024.00
2022-11-13T11:29:32.966Z,1023.96
2022-11-13T11:30:32.958Z,1023.97
2022-11-13T11:31:32.950Z,1023.98
2022-11-13T11:32:32.941Z,1023.99
2022-11-13T11:33:32.932Z,1023.93
2022-11-13T11:34:32.927Z,1023.94
2022-11-13T11:35:32.917Z,1023.91
2022-11-13T11:36:32.908Z,1023.94
2022-11-13T11:37:32.901Z,1023.95
2022-11-13T11:38:32.888Z,1023.91
2022-11-13T11:39:32.881Z,1023.92
2022-11-13T11:40:32.872Z,1023.92
2022-11-13T11:41:32.868Z,1023.89
2022-11-13T11:42:32.939Z,1023.90
2022-11-13T11:43:32.849Z,1023.90
2022-11-13T11:44:32.839Z,1023.88
2022-11-13T11:45:32.834Z,1023.87
2022-11-13T11:46:32.821Z,1023.86
2022-11-13T11:47:32.814Z,1023.86
2022-11-13T11:48:32.898Z,1023.88
2022-11-13T11:49:32.795Z,1023.88
2022-11-13T11:50:32.788Z,1023.88
2022-11-13T11:51:32.783Z,1023.85
2022-11-13T11:52:32.770Z,1023.86
2022-11-13T11:53:32.763Z,1023.87
2022-11-13T11:54:32.755Z,1023.85
2022-11-13T11:55:32.748Z,1023.82
2022-11-13T11:56:32.736Z,1023.83
2022-11-13T11:57:32.728Z,1023.81
2022-11-13T11:58:32.806Z,1023.85
2022-11-13T11:59:32.713Z,1023.81
2022-11-13T12:00:32.712Z,1023.81
2022-11-13T12:01:32.697Z,1023.84
2022-11-13T12:02:32.689Z,1023.79
2022-11-13T12:03:32.680Z,1023.75
2022-11-13T12:04:32.672Z,1023.76
2022-11-13T12:05:32.701Z,1023.74
2022-11-13T12:06:32.657Z,1023.78